Time;durP1;ratioP1;P1;durP2;ratioP2;P2;SDS_P1;SDS_P2;PMS_P1;PMS_P2;Temp;Humidity;BMP_temperature;BMP_pressure;BME280_temperature;BME280_humidity;BME280_pressure;Samples;Min_cycle;Max_cycle;Signal;HPM_P1;HPM_P2
2024/05/01 00:01:31;;;;;;;17.35;12.88;;;;;;;11.96;56.20;101301.97;5307606;26;20041;-76
2024/05/01 00:03:57;;;;;;;17.67;11.38;;;;;;;11.97;55.97;101296.66;5287887;26;20019;-76
2024/05/01 00:06:22;;;;;;;18.15;12.93;;;;;;;12.03;55.57;101296.41;5291421;26;20009;-77
2024/05/01 00:08:48;;;;;;;16.17;13.50;;;;;;;11.97;55.55;101296.66;5288545;26;20343;-76
2024/05/01 00:11:15;;;;;;;15.32;12.02;;;;;;;11.97;55.82;101301.03;5289269;26;20009;-76
2024/05/01 00:13:41;;;;;;;21.65;13.40;;;;;;;11.90;55.72;101284.72;5290967;26;20005;-75
2024/05/01 00:16:07;;;;;;;20.38;12.70;;;;;;;11.93;55.36;101286.34;5276477;26;20394;-76
2024/05/01 00:18:33;;;;;;;18.50;13.07;;;;;;;11.74;56.35;101284.44;5288859;26;20027;-75
2024/05/01 00:20:59;;;;;;;16.63;12.48;;;;;;;11.72;55.79;101282.78;5289431;26;20533;-75
2024/05/01 00:23:24;;;;;;;21.63;12.82;;;;;;;11.77;55.58;101286.94;5285204;26;21075;-75
2024/05/01 00:25:50;;;;;;;16.45;13.93;;;;;;;11.65;56.38;101283.00;5291931;26;20022;-75
2024/05/01 00:28:15;;;;;;;20.98;13.38;;;;;;;11.71;55.83;101275.81;5269404;26;20371;-75
2024/05/01 00:30:41;;;;;;;20.58;12.82;;;;;;;11.67;56.03;101270.72;5269969;26;20615;-75
2024/05/01 00:33:06;;;;;;;19.08;12.95;;;;;;;11.62;55.93;101263.94;5293630;26;20474;-75
2024/05/01 00:35:32;;;;;;;22.20;14.40;;;;;;;11.54;56.00;101266.84;5269922;26;20843;-75
2024/05/01 00:37:57;;;;;;;17.13;13.60;;;;;;;11.40;56.61;101256.91;5308549;26;20009;-75
2024/05/01 00:40:23;;;;;;;26.27;15.13;;;;;;;11.35;56.85;101260.59;5294012;26;20018;-76
2024/05/01 00:42:50;;;;;;;20.85;14.40;;;;;;;11.41;56.39;101252.53;5292810;26;20028;-75
2024/05/01 00:45:15;;;;;;;22.77;15.20;;;;;;;11.25;56.71;101244.41;5290819;26;20483;-75
2024/05/01 00:47:41;;;;;;;22.13;14.95;;;;;;;11.33;56.51;101238.88;5274426;26;20014;-76
2024/05/01 00:50:07;;;;;;;24.35;15.95;;;;;;;11.39;56.64;101239.47;5262654;26;20098;-75
2024/05/01 00:52:33;;;;;;;25.27;15.98;;;;;;;11.47;56.19;101236.59;5290349;26;20080;-75
2024/05/01 00:55:01;;;;;;;20.15;16.52;;;;;;;11.40;56.23;101238.59;5276402;26;20012;-75
2024/05/01 00:57:26;;;;;;;27.13;17.17;;;;;;;11.35;56.51;101232.69;5269471;26;20005;-75
2024/05/01 00:59:52;;;;;;;21.88;17.50;;;;;;;11.36;56.31;101234.38;5298952;26;20027;-75
2024/05/01 01:02:18;;;;;;;26.95;17.40;;;;;;;11.29;56.55;101243.38;5274403;26;20010;-75
2024/05/01 01:04:43;;;;;;;23.88;17.23;;;;;;;11.34;56.48;101241.44;5305213;26;20086;-75
2024/05/01 01:07:09;;;;;;;22.85;16.48;;;;;;;11.31;56.74;101236.31;5303222;26;20136;-76
2024/05/01 01:09:34;;;;;;;23.02;16.73;;;;;;;11.38;56.20;101235.19;5294581;26;20525;-75
2024/05/01 01:12:00;;;;;;;27.40;19.40;;;;;;;11.39;56.68;101238.63;5293981;26;20010;-76
2024/05/01 01:14:26;;;;;;;26.40;18.98;;;;;;;11.38;56.33;101243.03;5286043;26;20009;-75
2024/05/01 01:16:51;;;;;;;28.88;19.45;;;;;;;11.30;56.39;101234.59;5292778;26;20016;-76
2024/05/01 01:19:20;;;;;;;24.90;17.98;;;;;;;11.32;56.54;101235.41;5287189;26;20334;-76
2024/05/01 01:21:46;;;;;;;27.30;19.63;;;;;;;11.21;56.61;101229.72;5295361;26;20016;-76
2024/05/01 01:24:12;;;;;;;29.73;20.25;;;;;;;11.18;56.33;101227.22;5293960;26;20025;-75
2024/05/01 01:26:37;;;;;;;29.83;20.70;;;;;;;11.03;56.69;101210.31;5272119;26;20028;-75
2024/05/01 01:29:03;;;;;;;31.05;20.67;;;;;;;11.01;57.10;101212.97;5279876;26;20008;-75
2024/05/01 01:31:28;;;;;;;29.42;20.70;;;;;;;10.93;57.55;101212.41;5288169;26;20349;-76
2024/05/01 01:33:54;;;;;;;32.08;19.63;;;;;;;10.82;57.34;101201.50;5293711;26;20009;-75
2024/05/01 01:36:19;;;;;;;30.85;19.83;;;;;;;10.82;57.27;101204.97;5291455;26;20016;-76
2024/05/01 01:38:45;;;;;;;33.10;20.77;;;;;;;10.90;57.32;101203.81;5284863;26;20017;-75
2024/05/01 01:41:10;;;;;;;29.48;20.25;;;;;;;10.86;57.21;101197.88;5278749;26;20013;-76
2024/05/01 01:43:36;;;;;;;34.63;19.75;;;;;;;10.86;57.08;101205.72;5288476;26;20083;-75
2024/05/01 01:46:01;;;;;;;28.70;18.95;;;;;;;10.70;57.25;101207.97;5302005;26;20021;-75
2024/05/01 01:48:27;;;;;;;26.40;18.40;;;;;;;10.88;57.03;101205.63;5256928;26;20008;-76
2024/05/01 01:50:52;;;;;;;25.90;18.67;;;;;;;10.95;56.97;101208.00;5266858;26;20599;-76
2024/05/01 01:53:18;;;;;;;28.05;18.65;;;;;;;10.87;56.95;101203.94;5316963;26;20347;-75
2024/05/01 01:55:43;;;;;;;28.08;18.52;;;;;;;11.02;56.75;101198.16;5294970;26;20002;-76
2024/05/01 01:58:09;;;;;;;28.75;18.25;;;;;;;10.96;56.99;101188.75;5287854;26;20055;-75
2024/05/01 02:00:34;;;;;;;25.88;18.73;;;;;;;10.89;56.48;101189.91;5286267;26;20023;-75
2024/05/01 02:03:03;;;;;;;28.17;19.20;;;;;;;10.88;56.51;101196.03;5286841;26;20301;-75
2024/05/01 02:05:29;;;;;;;24.38;16.85;;;;;;;10.70;57.15;101197.50;5272207;26;20264;-75
2024/05/01 02:07:55;;;;;;;24.92;17.00;;;;;;;10.79;56.94;101191.09;5286585;26;20079;-75
2024/05/01 02:10:20;;;;;;;26.98;18.92;;;;;;;10.88;56.73;101197.78;5306177;26;20020;-75
2024/05/01 02:12:46;;;;;;;25.50;16.95;;;;;;;10.81;56.90;101197.13;5289121;26;20010;-75
2024/05/01 02:15:11;;;;;;;25.27;17.65;;;;;;;10.71;57.12;101190.53;5295329;26;20008;-75
2024/05/01 02:17:37;;;;;;;28.75;18.73;;;;;;;10.76;57.11;101186.84;5270718;26;20036;-76
2024/05/01 02:20:06;;;;;;;27.75;18.48;;;;;;;10.93;56.80;101190.63;5286892;26;20304;-75
2024/05/01 02:22:36;;;;;;;25.27;17.42;;;;;;;10.90;56.41;101194.22;5303920;26;20064;-75
2024/05/01 02:25:02;;;;;;;26.25;16.95;;;;;;;10.92;56.30;101191.53;5280033;26;20013;-75
2024/05/01 02:27:28;;;;;;;25.27;17.88;;;;;;;10.75;56.61;101186.88;5264145;26;20009;-75
2024/05/01 02:29:54;;;;;;;26.10;17.60;;;;;;;10.77;56.74;101185.06;5291826;26;21227;-75
2024/05/01 02:32:19;;;;;;;24.95;17.30;;;;;;;10.79;56.43;101181.50;5295054;26;20392;-76
2024/05/01 02:34:45;;;;;;;26.55;17.88;;;;;;;10.68;56.69;101174.94;5291918;26;20067;-75
2024/05/01 02:37:10;;;;;;;27.35;17.08;;;;;;;10.60;56.82;101176.06;5277850;26;20038;-75
2024/05/01 02:39:36;;;;;;;26.40;16.40;;;;;;;10.67;56.83;101176.72;5291250;26;20012;-75
2024/05/01 02:42:03;;;;;;;24.55;17.30;;;;;;;10.68;56.88;101174.94;5316344;26;20484;-75
2024/05/01 02:44:29;;;;;;;26.25;17.67;;;;;;;10.68;56.60;101172.31;5295502;26;20006;-75
2024/05/01 02:46:56;;;;;;;24.50;16.40;;;;;;;10.74;56.40;101162.50;5296038;26;20929;-76
2024/05/01 02:49:22;;;;;;;29.13;17.17;;;;;;;10.60;56.73;101170.84;5295816;26;20495;-75
2024/05/01 02:51:48;;;;;;;28.70;17.73;;;;;;;10.58;56.55;101177.88;5308263;26;20025;-75
2024/05/01 02:54:13;;;;;;;26.40;16.50;;;;;;;10.57;56.68;101168.34;5296186;26;20010;-75
2024/05/01 02:56:39;;;;;;;26.95;17.20;;;;;;;10.62;56.43;101166.41;5293690;26;20017;-75
2024/05/01 02:59:06;;;;;;;26.50;16.73;;;;;;;10.54;56.67;101165.81;5302263;26;20275;-76
2024/05/01 03:01:32;;;;;;;22.70;17.75;;;;;;;10.56;56.16;101169.25;5298887;26;20005;-76
2024/05/01 03:04:00;;;;;;;24.60;16.38;;;;;;;10.61;56.27;101166.47;5302608;26;20009;-75
2024/05/01 03:06:26;;;;;;;25.98;17.75;;;;;;;10.59;56.08;101166.53;5272093;26;20604;-75
2024/05/01 03:08:53;;;;;;;29.13;17.45;;;;;;;10.52;56.37;101169.41;5351296;26;20005;-75
2024/05/01 03:11:18;;;;;;;24.50;16.92;;;;;;;10.51;56.15;101160.72;5322069;26;20009;-75
2024/05/01 03:13:44;;;;;;;27.70;16.48;;;;;;;10.53;56.26;101174.59;5291301;26;20079;-75
2024/05/01 03:16:11;;;;;;;28.27;16.90;;;;;;;10.45;56.41;101166.16;5296529;26;20009;-75
2024/05/01 03:18:39;;;;;;;27.30;17.50;;;;;;;10.45;56.39;101171.38;5295506;26;20527;-75
2024/05/01 03:21:05;;;;;;;26.63;15.20;;;;;;;10.40;56.45;101165.47;5307839;26;20014;-75
2024/05/01 03:23:31;;;;;;;28.05;15.82;;;;;;;10.38;56.25;101169.91;5295923;26;20429;-76
2024/05/01 03:25:57;;;;;;;31.48;18.27;;;;;;;10.34;56.13;101166.53;5303849;26;20024;-76
2024/05/01 03:28:23;;;;;;;26.90;15.73;;;;;;;10.40;56.08;101158.47;5293807;26;20356;-76
2024/05/01 03:30:48;;;;;;;25.13;16.00;;;;;;;10.40;56.09;101161.09;5287688;26;20005;-76
2024/05/01 03:33:14;;;;;;;24.52;15.60;;;;;;;10.34;55.75;101157.84;5276165;26;20020;-76
2024/05/01 03:35:39;;;;;;;21.88;15.73;;;;;;;10.25;56.33;101160.75;5289886;26;20005;-75
2024/05/01 03:38:05;;;;;;;25.05;16.20;;;;;;;10.36;55.92;101153.41;5278689;26;20013;-75
2024/05/01 03:40:30;;;;;;;27.67;16.88;;;;;;;10.32;55.81;101154.41;5294123;26;20005;-75
2024/05/01 03:42:56;;;;;;;25.92;16.85;;;;;;;10.29;55.91;101154.53;5276681;26;20052;-75
2024/05/01 03:45:21;;;;;;;21.23;16.15;;;;;;;10.24;55.54;101156.47;5298523;26;20042;-74
2024/05/01 03:47:47;;;;;;;28.77;16.38;;;;;;;10.09;55.88;101153.44;5294639;26;20013;-75
2024/05/01 03:50:12;;;;;;;31.52;18.58;;;;;;;10.00;56.27;101149.38;5282404;26;20338;-76
2024/05/01 03:52:38;;;;;;;27.50;17.20;;;;;;;9.91;56.83;101151.44;5295930;26;20032;-75
2024/05/01 03:55:04;;;;;;;28.88;16.58;;;;;;;9.91;56.51;101156.69;5302893;26;20054;-76
2024/05/01 03:57:29;;;;;;;24.70;16.33;;;;;;;9.84;56.79;101160.38;5347049;26;20069;-75
2024/05/01 03:59:55;;;;;;;32.20;17.67;;;;;;;9.98;56.85;101159.00;5304079;26;20005;-75
2024/05/01 04:02:21;;;;;;;23.13;15.73;;;;;;;10.01;56.92;101152.84;5301241;26;20016;-76
2024/05/01 04:04:46;;;;;;;21.90;15.75;;;;;;;10.01;56.64;101158.06;5282992;26;20422;-76
2024/05/01 04:07:15;;;;;;;25.17;17.10;;;;;;;10.04;56.93;101152.75;5310511;26;20016;-75
2024/05/01 04:09:44;;;;;;;28.90;18.42;;;;;;;10.06;56.75;101148.34;5296842;26;20013;-75
2024/05/01 04:12:10;;;;;;;28.48;17.55;;;;;;;10.08;56.65;101141.31;5279405;26;20090;-76
2024/05/01 04:14:35;;;;;;;25.60;15.77;;;;;;;10.19;56.33;101143.53;5290200;26;20013;-75
2024/05/01 04:17:02;;;;;;;25.08;15.98;;;;;;;10.17;55.90;101142.75;5301197;26;20041;-76
2024/05/01 04:19:28;;;;;;;28.00;16.58;;;;;;;10.08;56.20;101141.31;5273557;26;20080;-75
2024/05/01 04:21:53;;;;;;;22.88;16.48;;;;;;;10.16;56.31;101144.50;5267739;26;20017;-75
2024/05/01 04:24:19;;;;;;;22.90;14.07;;;;;;;10.21;56.05;101131.28;5267473;26;20009;-75
2024/05/01 04:26:44;;;;;;;27.65;16.35;;;;;;;10.20;55.89;101140.03;5296547;26;20402;-75
2024/05/01 04:29:10;;;;;;;23.65;16.25;;;;;;;10.26;56.20;101145.06;5246112;26;20021;-75
2024/05/01 04:31:35;;;;;;;24.85;16.42;;;;;;;10.28;55.96;101142.38;5294879;26;20006;-75
2024/05/01 04:34:02;;;;;;;25.90;16.63;;;;;;;10.32;55.84;101149.19;5293385;26;20009;-75
2024/05/01 04:36:29;;;;;;;26.58;16.85;;;;;;;10.39;55.87;101155.91;5296084;26;20078;-75
2024/05/01 04:38:54;;;;;;;18.02;14.23;;;;;;;10.42;55.72;101148.81;5288974;26;22429;-75
2024/05/01 04:41:20;;;;;;;31.77;15.45;;;;;;;10.45;55.57;101149.63;5324834;26;20086;-74
2024/05/01 04:43:46;;;;;;;27.08;17.30;;;;;;;10.30;55.56;101140.56;5294764;26;20196;-74
2024/05/01 04:46:12;;;;;;;22.92;16.08;;;;;;;10.29;55.47;101149.31;5296877;26;20056;-74
2024/05/01 04:48:38;;;;;;;29.48;17.27;;;;;;;10.35;55.56;101141.28;5296311;26;20013;-75
2024/05/01 04:51:05;;;;;;;24.90;15.38;;;;;;;10.35;55.95;101149.09;5292032;26;20468;-74
2024/05/01 04:53:31;;;;;;;25.55;16.73;;;;;;;10.42;55.37;101147.97;5294757;26;20478;-75
2024/05/01 04:55:56;;;;;;;30.60;17.52;;;;;;;10.48;55.57;101142.53;5302429;26;20019;-75
2024/05/01 04:58:23;;;;;;;26.70;16.33;;;;;;;10.64;55.26;101146.31;5267698;26;20369;-75
2024/05/01 05:00:49;;;;;;;21.92;15.85;;;;;;;10.74;54.44;101159.03;5292469;26;20024;-75
2024/05/01 05:03:15;;;;;;;25.88;15.48;;;;;;;10.78;54.65;101142.34;5266879;26;20048;-75
2024/05/01 05:05:41;;;;;;;24.15;14.85;;;;;;;10.90;54.25;101139.28;5290305;26;20006;-75
2024/05/01 05:08:09;;;;;;;25.85;16.10;;;;;;;10.91;53.78;101141.00;5306649;26;20055;-74
2024/05/01 05:10:35;;;;;;;29.10;16.45;;;;;;;11.05;53.63;101130.88;5292270;26;20012;-75
2024/05/01 05:13:02;;;;;;;19.90;14.65;;;;;;;11.17;53.36;101136.56;5291898;26;20017;-76
2024/05/01 05:15:29;;;;;;;26.92;15.32;;;;;;;11.18;53.29;101131.28;5303970;26;20081;-74
2024/05/01 05:17:54;;;;;;;26.30;15.27;;;;;;;11.15;53.21;101125.28;5307972;26;20028;-75
2024/05/01 05:20:22;;;;;;;25.58;16.20;;;;;;;11.03;53.79;101127.47;5295361;26;20426;-74
2024/05/01 05:22:48;;;;;;;22.63;15.55;;;;;;;11.03;54.01;101124.84;5289600;26;20010;-74
2024/05/01 05:25:13;;;;;;;22.45;14.88;;;;;;;11.20;53.97;101118.13;5293373;26;20360;-75
2024/05/01 05:27:39;;;;;;;23.42;15.32;;;;;;;11.28;53.82;101118.66;5297043;26;20009;-75
2024/05/01 05:30:06;;;;;;;26.02;15.15;;;;;;;11.57;52.60;101116.66;5292009;26;21004;-75
2024/05/01 05:32:31;;;;;;;23.23;15.55;;;;;;;11.49;52.52;101113.53;5265980;26;20369;-75
2024/05/01 05:34:57;;;;;;;26.63;16.08;;;;;;;11.53;52.58;101108.09;5292435;26;20061;-75
2024/05/01 05:37:22;;;;;;;23.55;15.13;;;;;;;11.50;52.53;101104.75;5293379;26;20016;-75
2024/05/01 05:39:48;;;;;;;25.60;15.27;;;;;;;11.33;53.69;101093.19;5291594;26;20049;-74
2024/05/01 05:42:13;;;;;;;25.13;15.52;;;;;;;11.29;53.22;101096.00;5279836;26;20449;-75
2024/05/01 05:44:39;;;;;;;24.30;14.60;;;;;;;11.58;53.00;101102.69;5290130;26;20009;-75
2024/05/01 05:47:04;;;;;;;23.10;16.02;;;;;;;12.15;51.87;101088.06;5290211;26;20016;-75
2024/05/01 05:49:30;;;;;;;29.02;14.07;;;;;;;12.99;49.75;101080.84;5290576;26;20009;-74
2024/05/01 05:51:55;;;;;;;25.67;14.68;;;;;;;13.83;48.55;101090.81;5290035;26;20020;-74
2024/05/01 05:54:21;;;;;;;26.30;14.05;;;;;;;14.50;46.56;101089.13;5294083;26;20000;-75
2024/05/01 05:56:46;;;;;;;24.80;14.30;;;;;;;14.94;44.91;101078.81;5256659;26;20025;-74
2024/05/01 05:59:12;;;;;;;20.60;12.95;;;;;;;14.65;45.25;101077.78;5290453;26;20243;-74
2024/05/01 06:01:37;;;;;;;19.67;12.70;;;;;;;14.65;44.51;101083.06;5292647;26;20009;-75
2024/05/01 06:04:04;;;;;;;19.35;12.57;;;;;;;14.51;44.51;101072.44;5301085;26;20017;-75
2024/05/01 06:06:29;;;;;;;17.48;13.02;;;;;;;14.19;46.17;101067.06;5296530;26;20010;-75
2024/05/01 06:08:55;;;;;;;18.17;13.38;;;;;;;14.22;45.40;101069.53;5287595;26;20480;-75
2024/05/01 06:11:21;;;;;;;20.17;13.82;;;;;;;14.42;44.81;101070.31;5297987;26;20027;-75
2024/05/01 06:13:46;;;;;;;19.17;13.23;;;;;;;14.71;44.90;101066.94;5278683;26;20733;-74
2024/05/01 06:16:12;;;;;;;17.52;11.73;;;;;;;15.01;43.94;101062.69;5293446;26;20047;-75
2024/05/01 06:18:37;;;;;;;19.45;11.20;;;;;;;15.24;44.06;101069.31;5294855;26;20048;-75
2024/05/01 06:21:03;;;;;;;18.38;11.18;;;;;;;15.40;42.91;101064.06;5291570;26;20056;-75
2024/05/01 06:23:28;;;;;;;17.55;11.77;;;;;;;15.75;42.35;101059.34;5295507;26;20012;-75
2024/05/01 06:25:56;;;;;;;20.58;12.50;;;;;;;15.90;42.22;101054.97;5286979;26;20889;-75
2024/05/01 06:28:22;;;;;;;17.67;11.93;;;;;;;16.66;41.34;101054.72;5298085;26;20351;-74
2024/05/01 06:30:47;;;;;;;14.90;10.68;;;;;;;16.95;41.00;101058.16;5286844;26;20549;-74
2024/05/01 06:33:13;;;;;;;19.48;11.43;;;;;;;17.58;38.67;101055.88;5329531;26;20017;-75
2024/05/01 06:35:38;;;;;;;17.27;11.43;;;;;;;18.17;37.54;101058.06;5293825;26;20480;-75
2024/05/01 06:38:04;;;;;;;14.60;10.95;;;;;;;18.89;36.15;101060.94;5288187;26;20404;-75
2024/05/01 06:40:29;;;;;;;15.55;10.57;;;;;;;19.58;34.92;101063.81;5292676;26;20024;-75
2024/05/01 06:42:54;;;;;;;17.00;10.23;;;;;;;20.44;33.70;101054.56;5292831;26;20005;-75
2024/05/01 06:45:20;;;;;;;13.35;9.90;;;;;;;20.88;32.43;101050.16;5297322;26;20017;-75
2024/05/01 06:47:45;;;;;;;17.13;10.35;;;;;;;20.72;32.66;101055.00;5323465;26;20406;-75
2024/05/01 06:50:11;;;;;;;11.93;9.90;;;;;;;21.10;32.83;101053.72;5294348;26;20025;-75
2024/05/01 06:52:36;;;;;;;15.43;9.40;;;;;;;21.47;31.73;101056.00;5299553;26;20010;-75
2024/05/01 06:55:02;;;;;;;13.48;9.85;;;;;;;21.35;30.96;101052.53;5294457;26;20380;-75
2024/05/01 06:57:27;;;;;;;12.73;9.35;;;;;;;20.81;31.98;101043.63;5301159;26;20350;-75
2024/05/01 06:59:53;;;;;;;15.23;9.20;;;;;;;20.65;32.08;101048.50;5292931;26;20108;-75
2024/05/01 07:02:18;;;;;;;16.00;10.13;;;;;;;20.74;32.12;101045.94;5300086;26;20614;-75
2024/05/01 07:04:44;;;;;;;16.45;9.95;;;;;;;20.88;32.64;101046.66;5325976;26;20015;-75
2024/05/01 07:07:10;;;;;;;18.52;10.27;;;;;;;21.61;31.98;101046.91;5295742;26;20053;-75
2024/05/01 07:09:35;;;;;;;15.57;9.32;;;;;;;22.42;30.02;101045.22;5330381;26;20078;-75
2024/05/01 07:12:01;;;;;;;12.48;8.73;;;;;;;22.89;29.44;101040.16;5291568;26;21426;-75
2024/05/01 07:14:26;;;;;;;12.55;9.63;;;;;;;23.49;28.86;101047.22;5333266;26;20010;-75
2024/05/01 07:16:51;;;;;;;9.85;8.68;;;;;;;23.00;29.47;101053.38;5280769;26;20600;-75
2024/05/01 07:19:17;;;;;;;14.48;9.65;;;;;;;22.60;30.00;101053.41;5297759;26;20404;-75
2024/05/01 07:21:42;;;;;;;17.83;8.57;;;;;;;22.68;29.97;101055.41;5303811;26;20526;-75
2024/05/01 07:24:08;;;;;;;15.35;8.73;;;;;;;23.07;29.59;101052.81;5315042;26;20012;-75
2024/05/01 07:26:33;;;;;;;11.45;8.93;;;;;;;23.06;30.34;101048.47;5327042;26;20013;-75
2024/05/01 07:28:59;;;;;;;14.32;9.18;;;;;;;23.59;29.02;101038.25;5285569;26;20020;-75
2024/05/01 07:31:24;;;;;;;12.63;8.82;;;;;;;23.53;29.64;101051.31;5303040;26;20023;-75
2024/05/01 07:33:50;;;;;;;12.43;8.52;;;;;;;23.90;28.55;101021.19;5301097;26;20024;-75
2024/05/01 07:36:15;;;;;;;12.60;8.07;;;;;;;25.11;27.04;101024.63;5306993;26;20558;-75
2024/05/01 07:38:41;;;;;;;14.60;8.98;;;;;;;25.09;25.90;101032.81;5303325;26;20009;-75
2024/05/01 07:41:07;;;;;;;11.10;8.35;;;;;;;24.58;27.72;101039.59;5300854;26;20057;-75
2024/05/01 07:43:33;;;;;;;10.98;8.68;;;;;;;23.64;28.68;101035.13;5292313;26;20009;-75
2024/05/01 07:45:59;;;;;;;12.85;9.18;;;;;;;23.81;27.88;101031.72;5291586;26;20017;-76
2024/05/01 07:48:24;;;;;;;17.67;8.18;;;;;;;22.91;28.94;101030.22;5272636;26;20048;-75
2024/05/01 07:50:50;;;;;;;9.43;8.38;;;;;;;23.81;28.46;101036.19;5307687;26;20006;-76
2024/05/01 07:53:15;;;;;;;9.65;8.25;;;;;;;24.56;27.78;101030.91;5293983;26;20374;-76
2024/05/01 07:55:42;;;;;;;9.98;8.27;;;;;;;25.39;26.83;101026.19;5298713;26;20392;-75
2024/05/01 07:58:11;;;;;;;14.93;8.68;;;;;;;25.47;26.57;101025.44;5304156;26;20060;-75
2024/05/01 08:00:38;;;;;;;12.65;8.68;;;;;;;24.98;26.70;101025.84;5320657;26;20005;-75
2024/05/01 08:03:04;;;;;;;12.07;8.80;;;;;;;24.55;27.24;101015.84;5300949;26;20008;-77
2024/05/01 08:05:29;;;;;;;17.40;9.10;;;;;;;24.08;28.26;101021.25;5296163;26;20005;-76
2024/05/01 08:07:55;;;;;;;11.10;8.45;;;;;;;23.79;28.08;101017.69;5299200;26;20006;-75
2024/05/01 08:10:20;;;;;;;12.07;8.48;;;;;;;23.70;28.24;101013.22;5287023;26;20005;-76
2024/05/01 08:12:46;;;;;;;9.40;7.05;;;;;;;24.68;28.49;101012.81;5293444;26;20033;-76
2024/05/01 08:15:11;;;;;;;11.23;7.22;;;;;;;25.47;28.15;101015.56;5293847;26;20074;-76
2024/05/01 08:17:37;;;;;;;15.20;8.23;;;;;;;26.73;25.19;101008.84;5293460;26;20013;-76
2024/05/01 08:20:03;;;;;;;9.95;8.00;;;;;;;26.60;25.05;101012.84;5282532;26;20025;-76
2024/05/01 08:22:28;;;;;;;10.77;7.55;;;;;;;26.39;25.33;101002.53;5307031;26;20005;-76
2024/05/01 08:24:54;;;;;;;7.70;6.40;;;;;;;26.59;25.58;101015.69;5289162;26;20233;-74
2024/05/01 08:27:20;;;;;;;9.68;7.72;;;;;;;25.96;26.94;101006.19;5286747;26;20426;-76
2024/05/01 08:29:45;;;;;;;12.50;8.63;;;;;;;25.73;26.38;100996.00;5317571;26;20033;-75
2024/05/01 08:32:11;;;;;;;8.02;7.22;;;;;;;25.69;26.62;100992.00;5292172;26;20039;-76
2024/05/01 08:34:36;;;;;;;12.38;8.18;;;;;;;25.88;26.62;100989.06;5320040;26;20009;-76
2024/05/01 08:37:02;;;;;;;10.00;7.95;;;;;;;26.10;26.57;100994.88;5300269;26;20104;-75
2024/05/01 08:39:28;;;;;;;8.40;7.00;;;;;;;26.25;26.32;100995.13;5295007;26;20010;-75
2024/05/01 08:41:55;;;;;;;10.40;7.15;;;;;;;26.82;25.61;100994.44;5298222;26;21141;-76
2024/05/01 08:44:22;;;;;;;8.35;7.25;;;;;;;26.28;25.76;100995.63;5296175;26;20492;-76
2024/05/01 08:46:48;;;;;;;10.23;7.55;;;;;;;26.95;25.84;100994.78;5287130;26;20021;-74
2024/05/01 08:49:14;;;;;;;9.05;7.47;;;;;;;26.61;26.37;100986.88;5292422;26;20006;-75
2024/05/01 08:51:46;;;;;;;9.18;7.10;;;;;;;26.84;26.15;100990.56;5293116;26;20638;-75
2024/05/01 08:54:12;;;;;;;7.53;6.82;;;;;;;26.90;25.55;100987.25;5330078;26;20005;-74
2024/05/01 08:56:40;;;;;;;11.00;6.68;;;;;;;27.43;26.13;100981.53;5299413;26;20008;-74
2024/05/01 08:59:06;;;;;;;8.57;7.65;;;;;;;27.35;25.83;100987.75;5288396;26;20023;-75
2024/05/01 09:01:32;;;;;;;11.30;7.50;;;;;;;26.55;26.48;100988.31;5298286;26;20492;-74
2024/05/01 09:03:57;;;;;;;12.02;8.65;;;;;;;25.46;27.69;100984.47;5302459;26;20001;-75
2024/05/01 09:06:24;;;;;;;11.25;7.82;;;;;;;24.79;28.93;100984.03;5297476;26;20032;-76
2024/05/01 09:08:50;;;;;;;13.15;8.35;;;;;;;24.99;28.18;100970.53;5294178;26;20040;-75
2024/05/01 09:11:16;;;;;;;12.55;7.68;;;;;;;24.77;29.34;100979.81;5288860;26;20029;-75
2024/05/01 09:13:48;;;;;;;13.75;7.65;;;;;;;24.21;29.63;100971.03;5294084;26;20099;-75
2024/05/01 09:16:14;;;;;;;10.88;7.70;;;;;;;24.21;30.31;100979.91;5296394;26;20075;-75
2024/05/01 09:18:40;;;;;;;11.43;8.48;;;;;;;23.50;31.06;100977.75;5347670;26;20014;-76
2024/05/01 09:21:05;;;;;;;10.27;7.05;;;;;;;23.25;31.21;100973.81;5328212;26;22291;-75
2024/05/01 09:23:31;;;;;;;10.75;7.15;;;;;;;23.08;31.36;100963.88;5295295;26;19994;-75
2024/05/01 09:25:56;;;;;;;8.75;7.25;;;;;;;23.10;31.99;100972.59;5279552;26;20025;-76
2024/05/01 09:28:25;;;;;;;11.32;8.15;;;;;;;22.97;31.47;100955.03;5291936;26;20006;-75
2024/05/01 09:30:50;;;;;;;17.67;7.60;;;;;;;23.21;32.11;100951.09;5317345;26;20005;-75
2024/05/01 09:33:16;;;;;;;14.85;6.90;;;;;;;23.42;32.46;100948.28;5297863;26;20051;-75
2024/05/01 09:35:49;;;;;;;10.18;8.15;;;;;;;23.33;31.34;100949.97;5304139;26;20006;-75
2024/05/01 09:38:18;;;;;;;13.65;7.97;;;;;;;23.50;31.35;100944.88;5285821;26;20001;-75
2024/05/01 09:41:07;;;;;;;11.85;7.82;;;;;;;23.29;31.22;100942.41;5292131;26;20029;-75
2024/05/01 09:43:48;;;;;;;8.57;7.28;;;;;;;23.30;31.89;100936.94;5304418;26;20005;-75
2024/05/01 09:46:19;;;;;;;8.85;6.20;;;;;;;23.16;31.92;100940.88;5290476;26;20001;-75
2024/05/01 09:48:45;;;;;;;;;;;;;;;23.41;31.37;100934.09;5348697;26;20017;-74
2024/05/01 09:51:11;;;;;;;10.50;6.63;;;;;;;23.52;31.12;100929.56;5298851;26;19950;-75
2024/05/01 09:53:37;;;;;;;9.02;6.68;;;;;;;23.48;30.94;100931.69;5292031;26;20243;-75
2024/05/01 09:56:03;;;;;;;12.88;7.13;;;;;;;23.48;31.12;100923.69;5298821;26;20013;-75
2024/05/01 09:58:32;;;;;;;9.05;6.35;;;;;;;23.18;31.93;100914.03;5295386;26;20370;-75
2024/05/01 10:01:00;;;;;;;11.40;7.43;;;;;;;23.40;31.13;100915.56;5333653;26;20024;-75
2024/05/01 10:03:28;;;;;;;7.70;5.80;;;;;;;23.81;30.79;100914.31;5301187;26;20017;-75
2024/05/01 10:05:55;;;;;;;9.18;6.00;;;;;;;23.28;31.52;100911.41;5352580;26;20014;-73
2024/05/01 10:08:21;;;;;;;11.10;6.93;;;;;;;23.44;30.41;100916.97;5292086;26;20001;-75
2024/05/01 10:10:46;;;;;;;14.95;8.05;;;;;;;23.40;30.97;100915.56;5308885;26;20009;-75
2024/05/01 10:13:14;;;;;;;7.70;6.55;;;;;;;23.87;31.30;100909.38;5299842;26;20020;-75
2024/05/01 10:15:44;;;;;;;8.05;6.20;;;;;;;23.97;30.09;100904.84;5324373;26;20021;-75
2024/05/01 10:18:11;;;;;;;8.25;5.90;;;;;;;23.43;30.77;100904.59;5291433;26;22547;-75
2024/05/01 10:20:49;;;;;;;10.23;6.53;;;;;;;23.72;31.40;100901.84;5292201;26;20083;-75
2024/05/01 10:23:18;;;;;;;7.55;5.85;;;;;;;24.06;30.54;100887.94;5305254;26;20009;-75
2024/05/01 10:25:46;;;;;;;9.57;6.20;;;;;;;24.29;30.67;100879.50;5308070;26;20017;-75
2024/05/01 10:28:12;;;;;;;10.63;6.25;;;;;;;23.66;30.86;100881.09;5303361;26;20023;-75
2024/05/01 10:30:38;;;;;;;10.85;5.60;;;;;;;23.96;30.79;100873.78;5305139;26;20001;-75
2024/05/01 10:33:04;;;;;;;7.93;6.05;;;;;;;24.43;30.06;100870.97;5278927;26;20716;-75
2024/05/01 10:35:31;;;;;;;5.47;5.05;;;;;;;24.62;29.37;100865.47;5299193;26;20009;-75
2024/05/01 10:37:58;;;;;;;5.93;5.25;;;;;;;23.93;30.53;100864.25;5300733;26;20009;-75
2024/05/01 10:40:24;;;;;;;6.85;4.78;;;;;;;24.45;30.79;100858.31;5342827;26;20475;-75
2024/05/01 10:42:49;;;;;;;7.85;5.55;;;;;;;24.84;29.46;100857.97;5327641;26;20461;-75
2024/05/01 10:45:15;;;;;;;7.72;5.72;;;;;;;24.67;29.18;100845.47;5307532;26;20059;-74
2024/05/01 10:47:40;;;;;;;6.88;5.88;;;;;;;24.43;29.67;100841.59;5290695;26;20005;-74
2024/05/01 10:50:07;;;;;;;5.43;4.88;;;;;;;25.17;29.43;100836.81;5296064;26;20021;-75
2024/05/01 10:52:34;;;;;;;7.43;4.82;;;;;;;25.51;29.69;100838.63;5295282;26;20082;-75
2024/05/01 10:55:00;;;;;;;7.93;4.40;;;;;;;25.44;29.52;100839.31;5295901;26;20005;-75
2024/05/01 10:57:26;;;;;;;5.90;5.00;;;;;;;24.95;29.09;100833.66;5297301;26;20025;-74
2024/05/01 10:59:58;;;;;;;10.95;4.63;;;;;;;24.62;29.14;100827.22;5302694;26;20691;-74
2024/05/01 11:02:24;;;;;;;5.80;5.00;;;;;;;24.27;30.15;100822.72;5292233;26;20771;-75
2024/05/01 11:04:50;;;;;;;8.20;5.57;;;;;;;24.30;31.31;100817.06;5291432;26;20012;-75
2024/05/01 11:07:15;;;;;;;8.23;4.82;;;;;;;24.87;30.15;100814.88;5287951;26;20063;-75
2024/05/01 11:09:43;;;;;;;14.07;5.32;;;;;;;24.81;30.98;100810.97;5294198;26;20008;-76